65IN weather

Wells County Sheriff's Department Heliport
Bluffton, Indiana, United States

Public forecast

Using degrees Fahrenheit for public forecast. Weather courtesy of forecast.io.

METAR (pilot weather report)

Closest report is Huntington Municipal Airport, 13.8 nm (25.6 km) WNW. Retrieved 2019/04/25 12:15 UTC (0 seconds ago):

KHHG 251215Z AUTO 00000KT 10SM OVC020 11/08 A2984 RMK AO2 T01050081

TAF (pilot weather forecast)

Closest forecast is Fort Wayne International Airport, 14.7 nm (27.2 km) N. Retrieved 2019/04/25 12:24 UTC (0 seconds ago):

TAF KFWA 251121Z 2512/2612 13005KT P6SM OVC016 FM260200 01005KT 5SM SHRA BR OVC008 FM260600 34008KT 4SM SHRA BR OVC005 FM260900 33012G20KT 6SM SHRA BR OVC010